Time;durP1;ratioP1;P1;durP2;ratioP2;P2;SDS_P1;SDS_P2;PMS_P1;PMS_P2;Temp;Humidity;BMP_temperature;BMP_pressure;BME280_temperature;BME280_humidity;BME280_pressure;Samples;Min_cycle;Max_cycle;Signal;HPM_P1;HPM_P2
2023/05/05 00:09:54;;;;;;;6.75;2.58;;;;;;;16.43;100.00;100592.00;31208596;28;20041;-80
2023/05/05 00:24:56;;;;;;;4.10;2.60;;;;;;;16.07;100.00;100600.69;31180675;28;20557;-81
2023/05/05 00:39:58;;;;;;;13.90;3.17;;;;;;;16.01;100.00;100597.78;31214229;28;20056;-81
2023/05/05 00:54:59;;;;;;;4.60;2.87;;;;;;;16.13;100.00;100587.97;31229304;28;20091;-80
2023/05/05 01:10:20;;;;;;;6.37;3.60;;;;;;;16.20;100.00;100579.53;31223903;28;20775;-80
2023/05/05 01:26:01;;;;;;;7.03;2.80;;;;;;;16.17;100.00;100567.47;31229891;28;20049;-80
2023/05/05 01:41:11;;;;;;;7.00;3.53;;;;;;;16.15;100.00;100577.34;31224625;28;20053;-79
2023/05/05 01:56:15;;;;;;;4.10;2.67;;;;;;;16.01;100.00;100552.00;31216340;28;20049;-80
2023/05/05 02:11:18;;;;;;;5.17;3.07;;;;;;;15.75;100.00;100556.03;31195472;28;20061;-80
2023/05/05 02:26:23;;;;;;;3.30;2.80;;;;;;;15.31;100.00;100560.56;31191742;28;20123;-80
2023/05/05 02:41:27;;;;;;;6.73;3.83;;;;;;;15.21;100.00;100565.16;31187450;28;20053;-80
2023/05/05 02:56:49;;;;;;;11.57;4.10;;;;;;;15.52;100.00;100564.59;31211305;28;20310;-81
2023/05/05 03:12:04;;;;;;;9.33;4.47;;;;;;;15.64;100.00;100577.50;31215711;28;20054;-79
2023/05/05 03:27:06;;;;;;;8.43;4.97;;;;;;;15.78;100.00;100574.31;31208403;28;20472;-81
2023/05/05 03:42:08;;;;;;;11.20;6.07;;;;;;;15.77;100.00;100574.75;31187484;28;20111;-80
2023/05/05 03:57:09;;;;;;;19.13;7.00;;;;;;;15.73;100.00;100602.22;31198260;28;20114;-82
2023/05/05 04:12:12;;;;;;;14.77;7.00;;;;;;;16.17;100.00;100585.88;31215448;28;20453;-82
2023/05/05 04:27:14;;;;;;;11.37;6.60;;;;;;;16.57;100.00;100594.22;31228468;28;20491;-80
2023/05/05 04:42:19;;;;;;;21.27;6.20;;;;;;;16.95;100.00;100599.50;31204019;28;20053;-81
2023/05/05 04:57:21;;;;;;;21.23;5.30;;;;;;;17.47;100.00;100587.66;31210944;28;20092;-81
2023/05/05 05:12:24;;;;;;;16.50;6.10;;;;;;;18.57;100.00;100574.75;31205340;28;20107;-80
2023/05/05 05:27:27;;;;;;;26.27;9.47;;;;;;;19.70;100.00;100578.88;31236457;28;20057;-81
2023/05/05 05:42:29;;;;;;;11.68;4.45;;;;;;;20.36;97.18;100567.59;31224765;28;20124;-82
2023/05/05 05:57:31;;;;;;;6.85;4.00;;;;;;;20.93;87.60;100565.34;31215494;28;20057;-80
2023/05/05 06:12:33;;;;;;;8.45;4.28;;;;;;;21.75;70.94;100553.16;31223922;28;20038;-82
2023/05/05 06:27:35;;;;;;;10.15;4.50;;;;;;;22.78;66.05;100546.94;31242921;28;20042;-81
2023/05/05 06:42:37;;;;;;;6.45;2.65;;;;;;;23.68;58.95;100544.69;31239453;28;20088;-84
2023/05/05 06:57:42;;;;;;;5.35;2.75;;;;;;;24.11;53.97;100537.75;31255732;28;20053;-83
2023/05/05 07:12:45;;;;;;;8.00;3.50;;;;;;;24.18;53.53;100519.09;31242379;28;20465;-83
2023/05/05 07:27:47;;;;;;;4.00;3.00;;;;;;;24.44;51.30;100514.09;31208662;28;20056;-83
2023/05/05 07:42:49;;;;;;;3.03;2.30;;;;;;;24.88;45.45;100495.88;31122558;28;20049;-84
2023/05/05 07:57:53;;;;;;;3.42;2.58;;;;;;;25.71;46.27;100486.56;31096920;28;20076;-82
2023/05/05 08:12:55;;;;;;;3.60;2.43;;;;;;;25.90;44.83;100492.25;31106120;28;20100;-83
2023/05/05 08:27:57;;;;;;;3.63;2.00;;;;;;;26.14;43.57;100476.41;31106355;28;20061;-76
2023/05/05 08:43:00;;;;;;;3.63;1.80;;;;;;;27.74;42.76;100476.50;31228237;28;20057;-86
2023/05/05 08:58:04;;;;;;;2.90;1.77;;;;;;;27.67;41.40;100457.59;31262331;28;20053;-81
2023/05/05 09:13:07;;;;;;;5.57;1.80;;;;;;;28.42;40.26;100452.63;31252853;28;20075;-84
2023/05/05 09:28:18;;;;;;;2.97;1.65;;;;;;;28.88;38.42;100460.94;31232142;28;20574;-79
2023/05/05 09:43:22;;;;;;;2.28;1.40;;;;;;;29.07;36.46;100444.81;31245342;28;20674;-83
2023/05/05 09:58:26;;;;;;;5.10;1.58;;;;;;;29.26;36.63;100439.88;31254447;28;21003;-77
2023/05/05 10:13:32;;;;;;;4.82;1.50;;;;;;;28.97;35.93;100424.97;31237216;28;20407;-79
2023/05/05 10:28:44;;;;;;;2.25;1.30;;;;;;;28.87;33.55;100425.94;31210412;28;20461;-81
2023/05/05 10:43:47;;;;;;;3.08;1.13;;;;;;;27.71;35.25;100432.94;31223540;28;20072;-84
2023/05/05 10:58:49;;;;;;;4.20;0.82;;;;;;;28.21;33.64;100423.06;31225435;28;20528;-84
2023/05/05 11:14:21;;;;;;;1.48;1.00;;;;;;;27.22;32.09;100410.03;31231403;28;20053;-79
2023/05/05 11:29:23;;;;;;;2.03;1.13;;;;;;;27.47;33.72;100398.28;31236761;28;20045;-86
2023/05/05 11:44:32;;;;;;;2.20;1.15;;;;;;;26.67;34.88;100379.53;31263270;28;20306;-85
2023/05/05 11:59:36;;;;;;;7.57;1.50;;;;;;;26.31;36.92;100364.22;31221346;28;20057;-80
2023/05/05 12:14:51;;;;;;;3.75;1.30;;;;;;;26.03;37.01;100344.97;31242782;28;20053;-81
2023/05/05 12:29:55;;;;;;;4.32;2.20;;;;;;;26.06;39.90;100339.13;31207611;28;20791;-82
2023/05/05 12:44:57;;;;;;;3.55;1.67;;;;;;;26.32;40.34;100315.63;31246405;28;20413;-80
2023/05/05 13:00:12;;;;;;;4.30;1.70;;;;;;;25.59;40.36;100309.94;31231097;28;20046;-81
2023/05/05 13:15:15;;;;;;;3.22;1.95;;;;;;;25.09;45.65;100305.47;31250160;28;20053;-83
2023/05/05 13:30:17;;;;;;;2.92;1.63;;;;;;;25.10;46.63;100295.88;31245367;28;20499;-81
2023/05/05 13:45:19;;;;;;;37.00;24.67;;;;;;;24.81;47.46;100281.38;31249014;28;20526;-85
2023/05/05 14:00:25;;;;;;;3.97;1.50;;;;;;;24.50;45.75;100269.91;31252476;28;20041;-85
2023/05/05 14:15:28;;;;;;;6.10;2.28;;;;;;;24.56;44.65;100260.31;31251759;28;20041;-89
2023/05/05 14:30:30;;;;;;;5.73;1.90;;;;;;;24.46;45.11;100256.31;31256926;28;20088;-85
2023/05/05 14:45:32;;;;;;;5.33;1.63;;;;;;;24.41;45.61;100238.41;31266632;28;20061;-84
2023/05/05 15:00:34;;;;;;;6.03;3.57;;;;;;;24.05;48.02;100218.09;31251672;28;20077;-85
2023/05/05 15:15:36;;;;;;;4.70;1.90;;;;;;;23.80;48.25;100213.63;31251907;28;20053;-85
2023/05/05 15:30:38;;;;;;;7.78;1.67;;;;;;;23.64;48.93;100206.09;31227118;28;20087;-86
2023/05/05 15:45:40;;;;;;;7.07;4.40;;;;;;;23.48;50.70;100197.25;31234176;28;20049;-83
2023/05/05 16:00:42;;;;;;;5.18;2.08;;;;;;;23.39;50.06;100196.75;31222560;28;20650;-85
2023/05/05 16:15:45;;;;;;;4.45;2.05;;;;;;;23.20;50.61;100196.50;31247946;28;20118;-83
2023/05/05 16:30:47;;;;;;;11.43;4.50;;;;;;;22.89;51.41;100200.28;31212307;28;20108;-86
2023/05/05 16:45:48;;;;;;;6.40;3.72;;;;;;;22.52;51.96;100205.94;31230311;28;20459;-83
2023/05/05 17:00:51;;;;;;;15.50;6.80;;;;;;;22.21;52.70;100209.56;31260597;28;20050;-84
2023/05/05 17:15:53;;;;;;;14.87;4.60;;;;;;;21.92;55.29;100210.69;31248215;28;20085;-86
2023/05/05 17:30:58;;;;;;;64.32;17.92;;;;;;;21.61;58.46;100230.06;31267536;28;20053;-82
2023/05/05 17:46:00;;;;;;;7.47;4.57;;;;;;;21.28;63.34;100234.03;31297097;28;20077;-89
2023/05/05 18:01:02;;;;;;;18.88;7.32;;;;;;;21.10;69.67;100237.13;31242501;28;20045;-87
2023/05/05 18:16:05;;;;;;;9.18;3.72;;;;;;;20.85;73.74;100243.38;31262833;28;20050;-86
2023/05/05 18:31:07;;;;;;;9.07;4.72;;;;;;;20.65;77.07;100236.66;31212374;28;20093;-89
2023/05/05 18:46:09;;;;;;;5.25;3.08;;;;;;;20.52;79.91;100233.50;31253424;28;20065;-91
2023/05/05 19:01:11;;;;;;;4.30;2.30;;;;;;;20.35;84.53;100218.72;31228540;28;20045;-84
2023/05/05 19:16:13;;;;;;;6.05;3.55;;;;;;;20.26;86.66;100211.34;31220533;28;20505;-86
2023/05/05 19:31:15;;;;;;;8.38;5.55;;;;;;;20.13;86.63;100207.41;31238778;28;20057;-87
2023/05/05 19:46:18;;;;;;;5.40;2.85;;;;;;;19.67;93.86;100219.03;31236982;28;20133;-84
2023/05/05 20:01:20;;;;;;;4.72;2.40;;;;;;;18.96;100.00;100220.09;31201409;28;20049;-82
2023/05/05 20:16:23;;;;;;;7.93;2.90;;;;;;;18.34;100.00;100215.38;31208128;28;20076;-82
2023/05/05 20:31:25;;;;;;;11.23;4.57;;;;;;;17.94;100.00;100215.78;31212980;28;20136;-81
2023/05/05 20:46:27;;;;;;;12.77;3.53;;;;;;;17.65;100.00;100217.13;31199578;28;20089;-79
2023/05/05 21:01:29;;;;;;;9.00;4.03;;;;;;;17.56;100.00;100213.63;31221648;28;20060;-82
2023/05/05 21:16:31;;;;;;;8.98;3.95;;;;;;;17.36;100.00;100217.66;31227402;28;20053;-82
2023/05/05 21:31:33;;;;;;;8.40;3.90;;;;;;;17.19;100.00;100223.94;31207601;28;20056;-82
2023/05/05 21:46:35;;;;;;;10.60;5.03;;;;;;;17.03;100.00;100217.56;31233764;28;20504;-80
2023/05/05 22:01:37;;;;;;;7.45;3.50;;;;;;;16.90;100.00;100229.94;31195911;28;20136;-81
2023/05/05 22:16:39;;;;;;;5.57;3.37;;;;;;;16.89;100.00;100223.69;31219038;28;20175;-81
2023/05/05 22:31:41;;;;;;;5.00;2.83;;;;;;;16.79;100.00;100218.66;31228286;28;20058;-81
2023/05/05 22:46:43;;;;;;;6.33;2.97;;;;;;;16.72;100.00;100218.97;31226230;28;20085;-81
2023/05/05 23:01:45;;;;;;;9.40;4.07;;;;;;;16.47;100.00;100226.25;31224857;28;20060;-82
2023/05/05 23:16:47;;;;;;;6.57;2.53;;;;;;;16.20;100.00;100237.16;31216654;28;20062;-82
2023/05/05 23:31:49;;;;;;;3.20;2.67;;;;;;;16.07;100.00;100237.25;31225873;28;20855;-86
2023/05/05 23:46:51;;;;;;;5.10;2.50;;;;;;;15.89;100.00;100246.19;31204892;28;20103;-80
